Time;durP1;ratioP1;P1;durP2;ratioP2;P2;SDS_P1;SDS_P2;PMS_P1;PMS_P2;Temp;Humidity;BMP_temperature;BMP_pressure;BME280_temperature;BME280_humidity;BME280_pressure;Samples;Min_cycle;Max_cycle;Signal;HPM_P1;HPM_P2
2022/08/07 00:00:57;;;;;;;;;;;;;;;;;;4973612;28;20265;-43
2022/08/07 00:03:24;;;;;;;;;;;;;;;;;;4973671;28;20375;-43
2022/08/07 00:05:51;;;;;;;;;;;;;;;;;;4973640;28;19910;-43
2022/08/07 00:08:17;;;;;;;;;;;;;;;;;;4973648;28;19916;-43
2022/08/07 00:10:43;;;;;;;;;;;;;;;;;;4973716;28;19914;-43
2022/08/07 00:13:08;;;;;;;;;;;;;;;;;;4973807;28;19941;-43
2022/08/07 00:15:34;;;;;;;;;;;;;;;;;;4973469;28;19910;-43
2022/08/07 00:17:59;;;;;;;;;;;;;;;;;;4973447;28;19909;-42
2022/08/07 00:20:25;;;;;;;;;;;;;;;;;;4973316;28;19945;-43
2022/08/07 00:22:50;;;;;;;;;;;;;;;;;;4973704;28;19906;-43
2022/08/07 00:25:15;;;;;;;;;;;;;;;;;;4973490;28;19917;-43
2022/08/07 00:27:40;;;;;;;;;;;;;;;;;;4973386;28;20005;-43
2022/08/07 00:30:05;;;;;;;;;;;;;;;;;;4973265;28;19914;-43
2022/08/07 00:32:31;;;;;;;;;;;;;;;;;;4973306;28;19917;-43
2022/08/07 00:34:56;;;;;;;;;;;;;;;;;;4955857;28;19910;-42
2022/08/07 00:37:21;;;;;;;;;;;;;;;;;;4955888;28;19986;-43
2022/08/07 00:39:47;;;;;;;;;;;;;;;;;;4973066;28;19933;-43
2022/08/07 00:42:12;;;;;;;;;;;;;;;;;;4955727;28;19910;-43
2022/08/07 00:44:37;;;;;;;;;;;;;;;;;;4955781;28;20228;-43
2022/08/07 00:47:03;;;;;;;;;;;;;;;;;;4973305;28;19914;-44
2022/08/07 00:49:28;;;;;;;;;;;;;;;;;;4972934;28;19910;-43
2022/08/07 00:51:54;;;;;;;;;;;;;;;;;;4973086;28;20387;-43
2022/08/07 00:54:19;;;;;;;;;;;;;;;;;;4973140;28;19910;-43
2022/08/07 00:56:45;;;;;;;;;;;;;;;;;;4973295;28;19906;-43
2022/08/07 00:59:11;;;;;;;;;;;;;;;;;;4955544;28;20316;-43
2022/08/07 01:01:36;;;;;;;;;;;;;;;;;;4972773;28;19918;-43
2022/08/07 01:04:01;;;;;;;;;;;;;;;;;;4955626;28;20431;-43
2022/08/07 01:06:26;;;;;;;;;;;;;;;;;;4955506;28;20285;-43
2022/08/07 01:08:52;;;;;;;;;;;;;;;;;;4955547;28;20408;-43
2022/08/07 01:11:17;;;;;;;;;;;;;;;;;;4972817;28;19908;-43
2022/08/07 01:13:42;;;;;;;;;;;;;;;;;;4955480;28;19918;-43
2022/08/07 01:16:08;;;;;;;;;;;;;;;;;;4955442;28;19932;-43
2022/08/07 01:18:33;;;;;;;;;;;;;;;;;;4971574;28;19925;-43
2022/08/07 01:20:58;;;;;;;;;;;;;;;;;;4955299;28;20034;-42
2022/08/07 01:23:23;;;;;;;;;;;;;;;;;;4955393;28;19910;-42
2022/08/07 01:25:49;;;;;;;;;;;;;;;;;;4972829;28;20242;-43
2022/08/07 01:28:14;;;;;;;;;;;;;;;;;;4972632;28;19910;-43
2022/08/07 01:30:40;;;;;;;;;;;;;;;;;;4958713;28;20345;-42
2022/08/07 01:33:05;;;;;;;;;;;;;;;;;;4976465;28;19973;-43
2022/08/07 01:35:30;;;;;;;;;;;;;;;;;;4976654;28;19906;-43
2022/08/07 01:37:55;;;;;;;;;;;;;;;;;;4959073;28;19917;-43
2022/08/07 01:40:21;;;;;;;;;;;;;;;;;;4976411;28;20420;-43
2022/08/07 01:42:53;;;;;;;;;;;;;;;;;;4958863;28;19917;-43
2022/08/07 01:45:20;;;;;;;;;;;;;;;;;;4976141;28;19917;-43
2022/08/07 01:47:49;;;;;;;;;;;;;;;;;;4958857;28;19914;-43
2022/08/07 01:50:16;;;;;;;;;;;;;;;;;;4958532;28;19914;-43
2022/08/07 01:52:41;;;;;;;;;;;;;;;;;;4958789;28;19942;-43
2022/08/07 01:55:06;;;;;;;;;;;;;;;;;;4958722;28;19918;-43
2022/08/07 01:57:35;;;;;;;;;;;;;;;;;;4958611;28;19993;-43
2022/08/07 02:00:02;;;;;;;;;;;;;;;;;;4958317;28;19925;-43
2022/08/07 02:02:37;;;;;;;;;;;;;;;;;;4976005;28;19912;-43
2022/08/07 02:05:03;;;;;;;;;;;;;;;;;;4975887;28;19914;-43
2022/08/07 02:07:32;;;;;;;;;;;;;;;;;;4976136;28;19929;-43
2022/08/07 02:09:57;;;;;;;;;;;;;;;;;;4974501;28;20349;-43
2022/08/07 02:12:23;;;;;;;;;;;;;;;;;;4958283;28;20375;-43
2022/08/07 02:14:53;;;;;;;;;;;;;;;;;;4958393;28;19920;-42
2022/08/07 02:17:29;;;;;;;;;;;;;;;;;;4958330;28;19909;-43
2022/08/07 02:19:54;;;;;;;;;;;;;;;;;;4975567;28;20344;-43
2022/08/07 02:22:19;;;;;;;;;;;;;;;;;;4958171;28;20421;-43
2022/08/07 02:24:45;;;;;;;;;;;;;;;;;;4958437;28;19910;-43
2022/08/07 02:27:12;;;;;;;;;;;;;;;;;;4975345;28;19906;-43
2022/08/07 02:29:38;;;;;;;;;;;;;;;;;;4958047;28;19917;-43
2022/08/07 02:32:03;;;;;;;;;;;;;;;;;;4975351;28;19910;-43
2022/08/07 02:34:28;;;;;;;;;;;;;;;;;;4957990;28;19910;-42
2022/08/07 02:36:54;;;;;;;;;;;;;;;;;;4957979;28;19906;-43
2022/08/07 02:39:19;;;;;;;;;;;;;;;;;;4957695;28;20292;-43
2022/08/07 02:41:46;;;;;;;;;;;;;;;;;;4956843;28;19910;-43
2022/08/07 02:44:12;;;;;;;;;;;;;;;;;;4957704;28;19917;-43
2022/08/07 02:46:37;;;;;;;;;;;;;;;;;;4957714;28;19906;-43
2022/08/07 02:49:03;;;;;;;;;;;;;;;;;;4975106;28;19937;-43
2022/08/07 02:51:28;;;;;;;;;;;;;;;;;;4957625;28;19941;-43
2022/08/07 02:53:53;;;;;;;;;;;;;;;;;;4974917;28;20386;-43
2022/08/07 02:56:20;;;;;;;;;;;;;;;;;;4957557;28;19916;-42
2022/08/07 02:58:46;;;;;;;;;;;;;;;;;;4974949;28;19914;-43
2022/08/07 03:01:12;;;;;;;;;;;;;;;;;;4957186;28;19924;-43
2022/08/07 03:03:37;;;;;;;;;;;;;;;;;;4957459;28;19910;-43
2022/08/07 03:06:02;;;;;;;;;;;;;;;;;;4957479;28;19937;-43
2022/08/07 03:08:27;;;;;;;;;;;;;;;;;;4957226;28;19918;-43
2022/08/07 03:10:53;;;;;;;;;;;;;;;;;;4957294;28;19976;-43
2022/08/07 03:13:24;;;;;;;;;;;;;;;;;;4957206;28;19929;-43
2022/08/07 03:15:51;;;;;;;;;;;;;;;;;;4957251;28;19921;-43
2022/08/07 03:18:17;;;;;;;;;;;;;;;;;;4974762;28;19906;-43
2022/08/07 03:20:42;;;;;;;;;;;;;;;;;;4957193;28;19941;-43
2022/08/07 03:23:07;;;;;;;;;;;;;;;;;;4974589;28;19910;-43
2022/08/07 03:25:32;;;;;;;;;;;;;;;;;;4974414;28;19977;-42
2022/08/07 03:27:58;;;;;;;;;;;;;;;;;;4956969;28;19913;-43
2022/08/07 03:30:23;;;;;;;;;;;;;;;;;;4972927;28;19921;-43
2022/08/07 03:32:49;;;;;;;;;;;;;;;;;;4956896;28;19973;-43
2022/08/07 03:35:15;;;;;;;;;;;;;;;;;;4956827;28;19914;-44
2022/08/07 03:37:40;;;;;;;;;;;;;;;;;;4956810;28;20349;-43
2022/08/07 03:40:05;;;;;;;;;;;;;;;;;;4956685;28;19988;-43
2022/08/07 03:42:31;;;;;;;;;;;;;;;;;;4956675;28;20364;-43
2022/08/07 03:44:57;;;;;;;;;;;;;;;;;;4956712;28;19956;-43
2022/08/07 03:47:22;;;;;;;;;;;;;;;;;;4973990;28;19906;-43
2022/08/07 03:49:47;;;;;;;;;;;;;;;;;;4974014;28;19917;-44
2022/08/07 03:52:13;;;;;;;;;;;;;;;;;;4973524;28;19917;-43
2022/08/07 03:54:38;;;;;;;;;;;;;;;;;;4973952;28;19910;-43
2022/08/07 03:57:06;;;;;;;;;;;;;;;;;;4956522;28;19964;-43
2022/08/07 03:59:31;;;;;;;;;;;;;;;;;;4956172;28;19921;-46
2022/08/07 04:01:56;;;;;;;;;;;;;;;;;;4973695;28;20025;-42
2022/08/07 04:04:22;;;;;;;;;;;;;;;;;;4973613;28;19910;-43
2022/08/07 04:06:51;;;;;;;;;;;;;;;;;;4956346;28;20032;-43
2022/08/07 04:09:16;;;;;;;;;;;;;;;;;;4956184;28;20017;-43
2022/08/07 04:11:44;;;;;;;;;;;;;;;;;;4956211;28;19910;-42
2022/08/07 04:14:09;;;;;;;;;;;;;;;;;;4973735;28;19910;-43
2022/08/07 04:16:34;;;;;;;;;;;;;;;;;;4956220;28;20351;-42
2022/08/07 04:19:01;;;;;;;;;;;;;;;;;;4972057;28;20044;-43
2022/08/07 04:21:27;;;;;;;;;;;;;;;;;;4956023;28;20012;-44
2022/08/07 04:23:52;;;;;;;;;;;;;;;;;;4956046;28;19917;-43
2022/08/07 04:26:18;;;;;;;;;;;;;;;;;;4955907;28;19906;-43
2022/08/07 04:28:43;;;;;;;;;;;;;;;;;;4973316;28;19921;-43
2022/08/07 04:31:08;;;;;;;;;;;;;;;;;;4955881;28;20060;-44
2022/08/07 04:33:33;;;;;;;;;;;;;;;;;;4955957;28;19916;-44
2022/08/07 04:35:59;;;;;;;;;;;;;;;;;;4956004;28;19961;-43
2022/08/07 04:38:26;;;;;;;;;;;;;;;;;;4955809;28;19914;-43
2022/08/07 04:40:52;;;;;;;;;;;;;;;;;;4973319;28;19925;-43
2022/08/07 04:43:17;;;;;;;;;;;;;;;;;;4973051;28;19921;-43
2022/08/07 04:45:45;;;;;;;;;;;;;;;;;;4955874;28;19912;-43
2022/08/07 04:48:10;;;;;;;;;;;;;;;;;;4955671;28;20351;-43
2022/08/07 04:50:35;;;;;;;;;;;;;;;;;;4955765;28;19913;-43
2022/08/07 04:53:08;;;;;;;;;;;;;;;;;;4956647;28;19910;-43
2022/08/07 04:55:33;;;;;;;;;;;;;;;;;;4955720;28;19974;-44
2022/08/07 04:57:59;;;;;;;;;;;;;;;;;;4955711;28;20344;-43
2022/08/07 05:00:25;;;;;;;;;;;;;;;;;;4948892;28;19919;-43
2022/08/07 05:02:50;;;;;;;;;;;;;;;;;;4933327;29;20322;-43
2022/08/07 05:05:17;;;;;;;;;;;;;;;;;;4936246;29;19917;-43
2022/08/07 05:07:42;;;;;;;;;;;;;;;;;;4937241;29;19906;-43
2022/08/07 05:10:08;;;;;;;;;;;;;;;;;;4937094;29;19911;-43
2022/08/07 05:12:36;;;;;;;;;;;;;;;;;;4937116;29;19931;-43
2022/08/07 05:15:14;;;;;;;;;;;;;;;;;;4938590;29;19910;-43
2022/08/07 05:17:41;;;;;;;;;;;;;;;;;;4938304;29;19915;-43
2022/08/07 05:20:06;;;;;;;;;;;;;;;;;;4936754;29;19933;-43
2022/08/07 05:22:31;;;;;;;;;;;;;;;;;;4938199;29;20381;-42
2022/08/07 05:24:57;;;;;;;;;;;;;;;;;;4936848;29;19907;-43
2022/08/07 05:27:23;;;;;;;;;;;;;;;;;;4936813;29;19914;-43
2022/08/07 05:29:48;;;;;;;;;;;;;;;;;;4936746;29;19906;-42
2022/08/07 05:32:14;;;;;;;;;;;;;;;;;;4936695;29;20015;-43
2022/08/07 05:34:40;;;;;;;;;;;;;;;;;;4936795;29;19913;-43
2022/08/07 05:37:06;;;;;;;;;;;;;;;;;;4936670;29;20587;-43
2022/08/07 05:39:37;;;;;;;;;;;;;;;;;;4936564;29;19914;-43
2022/08/07 05:42:03;;;;;;;;;;;;;;;;;;4936627;29;19915;-43
2022/08/07 05:44:29;;;;;;;;;;;;;;;;;;4936478;29;20305;-42
2022/08/07 05:46:54;;;;;;;;;;;;;;;;;;4936607;29;19996;-42
2022/08/07 05:49:23;;;;;;;;;;;;;;;;;;4936396;29;19914;-43
2022/08/07 05:51:50;;;;;;;;;;;;;;;;;;4936448;29;19962;-43
2022/08/07 05:54:18;;;;;;;;;;;;;;;;;;4936375;29;19910;-43
2022/08/07 05:56:43;;;;;;;;;;;;;;;;;;4936337;29;19923;-43
2022/08/07 05:59:11;;;;;;;;;;;;;;;;;;4936150;29;19910;-42
2022/08/07 06:01:36;;;;;;;;;;;;;;;;;;4950848;29;20365;-43
2022/08/07 06:04:04;;;;;;;;;;;;;;;;;;4971451;28;19965;-43
2022/08/07 06:06:35;;;;;;;;;;;;;;;;;;4955310;29;19910;-42
2022/08/07 06:09:03;;;;;;;;;;;;;;;;;;4955250;29;19990;-43
2022/08/07 06:11:29;;;;;;;;;;;;;;;;;;4955278;28;19911;-43
2022/08/07 06:13:54;;;;;;;;;;;;;;;;;;4956427;28;19910;-42
2022/08/07 06:16:20;;;;;;;;;;;;;;;;;;4954954;28;19913;-43
2022/08/07 06:18:45;;;;;;;;;;;;;;;;;;4955091;29;19911;-43
2022/08/07 06:21:10;;;;;;;;;;;;;;;;;;4954828;29;19914;-44
2022/08/07 06:23:38;;;;;;;;;;;;;;;;;;4956355;28;20056;-43
2022/08/07 06:26:04;;;;;;;;;;;;;;;;;;4971110;28;19910;-43
2022/08/07 06:28:30;;;;;;;;;;;;;;;;;;4954822;29;20005;-43
2022/08/07 06:30:56;;;;;;;;;;;;;;;;;;4954800;28;20066;-43
2022/08/07 06:33:21;;;;;;;;;;;;;;;;;;4956074;29;19917;-43
2022/08/07 06:35:47;;;;;;;;;;;;;;;;;;4954756;28;19910;-42
2022/08/07 06:38:13;;;;;;;;;;;;;;;;;;4955942;28;19945;-43
2022/08/07 06:40:39;;;;;;;;;;;;;;;;;;4954598;29;20385;-42
2022/08/07 06:43:04;;;;;;;;;;;;;;;;;;4954630;29;20005;-43
2022/08/07 06:45:45;;;;;;;;;;;;;;;;;;4954670;29;20382;-43
2022/08/07 06:48:10;;;;;;;;;;;;;;;;;;4954459;29;19969;-43
2022/08/07 06:50:38;;;;;;;;;;;;;;;;;;4955775;28;19915;-42
2022/08/07 06:53:04;;;;;;;;;;;;;;;;;;4954521;29;19918;-43
2022/08/07 06:55:32;;;;;;;;;;;;;;;;;;4954330;29;19917;-43
2022/08/07 06:57:58;;;;;;;;;;;;;;;;;;4954414;29;19915;-43
2022/08/07 07:00:25;;;;;;;;;;;;;;;;;;4953979;29;19925;-43
2022/08/07 07:02:50;;;;;;;;;;;;;;;;;;4955812;28;20373;-42
2022/08/07 07:05:16;;;;;;;;;;;;;;;;;;4955466;28;19906;-43
2022/08/07 07:07:41;;;;;;;;;;;;;;;;;;4954242;29;20322;-44
2022/08/07 07:10:07;;;;;;;;;;;;;;;;;;4955413;29;19906;-42
2022/08/07 07:12:32;;;;;;;;;;;;;;;;;;4970143;28;19914;-43
2022/08/07 07:14:57;;;;;;;;;;;;;;;;;;4955369;29;19906;-42
2022/08/07 07:17:23;;;;;;;;;;;;;;;;;;4955187;28;20016;-43
2022/08/07 07:19:48;;;;;;;;;;;;;;;;;;4955136;28;19918;-43
2022/08/07 07:22:13;;;;;;;;;;;;;;;;;;4955179;29;19969;-42
2022/08/07 07:24:38;;;;;;;;;;;;;;;;;;4955108;29;20340;-42
2022/08/07 07:27:04;;;;;;;;;;;;;;;;;;4954536;28;20598;-43
2022/08/07 07:29:30;;;;;;;;;;;;;;;;;;4955014;29;20318;-42
2022/08/07 07:31:55;;;;;;;;;;;;;;;;;;4955019;28;19938;-43
2022/08/07 07:34:20;;;;;;;;;;;;;;;;;;4955006;29;19917;-43
2022/08/07 07:36:46;;;;;;;;;;;;;;;;;;4955253;29;19917;-42
2022/08/07 07:39:11;;;;;;;;;;;;;;;;;;4954718;29;19952;-42
2022/08/07 07:41:37;;;;;;;;;;;;;;;;;;4954850;29;20073;-43
2022/08/07 07:44:02;;;;;;;;;;;;;;;;;;4954905;28;19933;-42
2022/08/07 07:46:28;;;;;;;;;;;;;;;;;;4954877;29;20297;-43
2022/08/07 07:48:53;;;;;;;;;;;;;;;;;;4954745;28;19971;-42
2022/08/07 07:51:18;;;;;;;;;;;;;;;;;;4954634;29;19954;-43
2022/08/07 07:53:44;;;;;;;;;;;;;;;;;;4954560;29;19918;-42
2022/08/07 07:56:09;;;;;;;;;;;;;;;;;;4954600;28;19915;-43
2022/08/07 07:58:35;;;;;;;;;;;;;;;;;;4954496;29;20373;-43
2022/08/07 08:01:00;;;;;;;;;;;;;;;;;;4964201;28;20289;-42
2022/08/07 08:03:25;;;;;;;;;;;;;;;;;;4956727;28;19954;-42
2022/08/07 08:05:51;;;;;;;;;;;;;;;;;;4973980;28;19914;-43
2022/08/07 08:08:17;;;;;;;;;;;;;;;;;;4973793;28;20320;-42
2022/08/07 08:10:42;;;;;;;;;;;;;;;;;;4973608;28;19910;-42
2022/08/07 08:13:07;;;;;;;;;;;;;;;;;;4973845;28;19906;-43
2022/08/07 08:15:33;;;;;;;;;;;;;;;;;;4973748;28;20203;-43
2022/08/07 08:17:58;;;;;;;;;;;;;;;;;;4973832;28;20353;-43
2022/08/07 08:20:23;;;;;;;;;;;;;;;;;;4973267;28;19933;-43
2022/08/07 08:28:16;;;;;;;;;;;;;;;;;;4973295;28;19913;-43
2022/08/07 08:30:41;;;;;;;;;;;;;;;;;;4973594;28;19982;-42
2022/08/07 08:33:07;;;;;;;;;;;;;;;;;;4973581;28;19914;-42
2022/08/07 08:35:32;;;;;;;;;;;;;;;;;;4973100;28;19906;-43
2022/08/07 08:37:57;;;;;;;;;;;;;;;;;;4973147;28;19910;-43
2022/08/07 08:40:22;;;;;;;;;;;;;;;;;;4972569;28;20018;-42
2022/08/07 08:42:48;;;;;;;;;;;;;;;;;;4973351;28;19910;-43
2022/08/07 08:45:13;;;;;;;;;;;;;;;;;;4973074;28;19910;-42
2022/08/07 08:47:38;;;;;;;;;;;;;;;;;;4956107;28;19914;-42
2022/08/07 08:50:04;;;;;;;;;;;;;;;;;;4955705;28;20379;-43
2022/08/07 08:52:30;;;;;;;;;;;;;;;;;;4972997;28;20339;-43
2022/08/07 08:54:55;;;;;;;;;;;;;;;;;;4973342;28;19921;-43
2022/08/07 08:57:20;;;;;;;;;;;;;;;;;;4973191;28;19914;-42
2022/08/07 08:59:46;;;;;;;;;;;;;;;;;;4972735;28;20345;-44
2022/08/07 09:02:11;;;;;;;;;;;;;;;;;;4972979;28;19957;-43
2022/08/07 09:04:37;;;;;;;;;;;;;;;;;;4972933;28;19965;-43
2022/08/07 09:07:02;;;;;;;;;;;;;;;;;;4972935;28;19910;-42
2022/08/07 09:09:27;;;;;;;;;;;;;;;;;;4972861;28;19906;-42
2022/08/07 09:11:53;;;;;;;;;;;;;;;;;;4955465;28;19914;-43
2022/08/07 09:14:18;;;;;;;;;;;;;;;;;;4973144;28;19906;-43
2022/08/07 09:16:44;;;;;;;;;;;;;;;;;;4972847;28;20293;-42
2022/08/07 09:19:09;;;;;;;;;;;;;;;;;;4972863;28;19906;-43
2022/08/07 09:21:34;;;;;;;;;;;;;;;;;;4972679;28;20364;-42
2022/08/07 09:24:00;;;;;;;;;;;;;;;;;;4972914;28;20253;-42
2022/08/07 09:26:26;;;;;;;;;;;;;;;;;;4972654;28;19949;-43
2022/08/07 09:28:51;;;;;;;;;;;;;;;;;;4972706;28;19910;-43
2022/08/07 09:31:17;;;;;;;;;;;;;;;;;;4973194;28;19913;-43
2022/08/07 09:33:42;;;;;;;;;;;;;;;;;;4972648;28;20256;-43
2022/08/07 09:36:07;;;;;;;;;;;;;;;;;;4972733;28;19960;-43
2022/08/07 09:38:33;;;;;;;;;;;;;;;;;;4972826;28;20056;-42
2022/08/07 09:40:58;;;;;;;;;;;;;;;;;;4955259;28;20380;-43
2022/08/07 09:43:24;;;;;;;;;;;;;;;;;;4972858;28;19910;-42
2022/08/07 09:45:49;;;;;;;;;;;;;;;;;;4972838;28;20367;-43
2022/08/07 09:48:14;;;;;;;;;;;;;;;;;;4955271;28;19906;-43
2022/08/07 09:50:40;;;;;;;;;;;;;;;;;;4974329;28;19914;-42
2022/08/07 09:53:05;;;;;;;;;;;;;;;;;;4976184;28;20312;-43
2022/08/07 09:55:30;;;;;;;;;;;;;;;;;;4976344;28;19961;-43
2022/08/07 09:57:56;;;;;;;;;;;;;;;;;;4958716;28;19932;-42
2022/08/07 10:00:21;;;;;;;;;;;;;;;;;;4975807;28;19976;-43
2022/08/07 10:02:46;;;;;;;;;;;;;;;;;;4975992;28;19910;-42
2022/08/07 10:05:12;;;;;;;;;;;;;;;;;;4975941;28;19921;-43
2022/08/07 10:07:38;;;;;;;;;;;;;;;;;;4975906;28;19906;-42
2022/08/07 10:10:04;;;;;;;;;;;;;;;;;;4975793;28;19952;-42
2022/08/07 10:12:29;;;;;;;;;;;;;;;;;;4975762;28;19990;-43
2022/08/07 10:14:55;;;;;;;;;;;;;;;;;;4975772;28;19914;-42
2022/08/07 10:17:20;;;;;;;;;;;;;;;;;;4975894;28;19917;-42
2022/08/07 10:19:45;;;;;;;;;;;;;;;;;;4975572;28;20435;-42
2022/08/07 10:22:11;;;;;;;;;;;;;;;;;;4975566;28;19906;-43
2022/08/07 10:24:36;;;;;;;;;;;;;;;;;;4975703;28;19917;-43
2022/08/07 10:27:01;;;;;;;;;;;;;;;;;;4975629;28;19907;-43
2022/08/07 10:29:27;;;;;;;;;;;;;;;;;;4975354;28;19910;-43
2022/08/07 10:31:52;;;;;;;;;;;;;;;;;;4975467;28;19913;-43
2022/08/07 10:34:17;;;;;;;;;;;;;;;;;;4975279;28;19914;-43
2022/08/07 10:36:42;;;;;;;;;;;;;;;;;;4975409;28;20339;-43
2022/08/07 10:39:08;;;;;;;;;;;;;;;;;;4975275;28;19914;-53
2022/08/07 10:41:33;;;;;;;;;;;;;;;;;;4975116;28;19922;-43
2022/08/07 10:43:59;;;;;;;;;;;;;;;;;;4975180;28;19917;-43
2022/08/07 10:46:24;;;;;;;;;;;;;;;;;;4975347;28;20341;-43
2022/08/07 10:48:50;;;;;;;;;;;;;;;;;;4975408;28;19910;-43
2022/08/07 10:51:15;;;;;;;;;;;;;;;;;;4975212;28;19906;-43
2022/08/07 10:53:40;;;;;;;;;;;;;;;;;;4975082;28;19997;-43
2022/08/07 10:56:06;;;;;;;;;;;;;;;;;;4975054;28;19913;-48
2022/08/07 10:58:32;;;;;;;;;;;;;;;;;;4974814;28;20001;-43
2022/08/07 11:00:57;;;;;;;;;;;;;;;;;;4974395;28;20013;-43
2022/08/07 11:03:23;;;;;;;;;;;;;;;;;;4974181;28;19914;-43
2022/08/07 11:05:48;;;;;;;;;;;;;;;;;;4974712;28;19906;-43
2022/08/07 11:08:14;;;;;;;;;;;;;;;;;;4975070;28;19914;-43
2022/08/07 11:10:39;;;;;;;;;;;;;;;;;;4974742;28;19906;-43
2022/08/07 11:13:05;;;;;;;;;;;;;;;;;;4974681;28;19978;-43
2022/08/07 11:15:30;;;;;;;;;;;;;;;;;;4974632;28;19910;-43
2022/08/07 11:17:55;;;;;;;;;;;;;;;;;;4974643;28;19914;-43
2022/08/07 11:20:21;;;;;;;;;;;;;;;;;;4974351;28;19918;-46
2022/08/07 11:22:46;;;;;;;;;;;;;;;;;;4974868;28;19929;-43
2022/08/07 11:25:12;;;;;;;;;;;;;;;;;;4974531;28;20696;-43
2022/08/07 11:27:37;;;;;;;;;;;;;;;;;;4974550;28;20383;-43
2022/08/07 11:30:03;;;;;;;;;;;;;;;;;;4974404;28;20366;-43
2022/08/07 11:32:28;;;;;;;;;;;;;;;;;;4974286;28;19909;-42
2022/08/07 11:34:54;;;;;;;;;;;;;;;;;;4974267;28;19961;-43
2022/08/07 11:37:19;;;;;;;;;;;;;;;;;;4974249;28;19910;-43
2022/08/07 11:39:44;;;;;;;;;;;;;;;;;;4974087;28;19914;-42
2022/08/07 11:42:10;;;;;;;;;;;;;;;;;;4974369;28;19914;-43
2022/08/07 11:44:35;;;;;;;;;;;;;;;;;;4974356;28;20367;-42
2022/08/07 11:47:01;;;;;;;;;;;;;;;;;;4974120;28;19913;-43
2022/08/07 11:49:28;;;;;;;;;;;;;;;;;;4973920;28;19925;-43
2022/08/07 11:51:53;;;;;;;;;;;;;;;;;;4974053;28;19948;-43
2022/08/07 11:54:19;;;;;;;;;;;;;;;;;;4973856;28;19945;-43
2022/08/07 11:56:45;;;;;;;;;;;;;;;;;;4974065;28;19992;-43
2022/08/07 11:59:10;;;;;;;;;;;;;;;;;;4974154;28;20329;-43
2022/08/07 12:01:36;;;;;;;;;;;;;;;;;;4973484;28;20448;-43
2022/08/07 12:04:01;;;;;;;;;;;;;;;;;;4973867;28;20288;-43
2022/08/07 12:06:29;;;;;;;;;;;;;;;;;;4973673;28;20399;-43
2022/08/07 12:08:54;;;;;;;;;;;;;;;;;;4973630;28;19910;-42
2022/08/07 12:11:20;;;;;;;;;;;;;;;;;;4973892;28;19913;-42
2022/08/07 12:13:45;;;;;;;;;;;;;;;;;;4973677;28;20341;-43
2022/08/07 12:16:10;;;;;;;;;;;;;;;;;;4973577;28;20379;-42
2022/08/07 12:18:36;;;;;;;;;;;;;;;;;;4973459;28;19906;-42
2022/08/07 12:21:04;;;;;;;;;;;;;;;;;;4973471;28;19940;-43
2022/08/07 12:23:29;;;;;;;;;;;;;;;;;;4973351;28;19905;-43
2022/08/07 12:25:55;;;;;;;;;;;;;;;;;;4973430;28;20306;-46
2022/08/07 12:28:20;;;;;;;;;;;;;;;;;;4973247;28;19960;-43
2022/08/07 12:30:46;;;;;;;;;;;;;;;;;;4973334;28;19917;-43
2022/08/07 12:33:11;;;;;;;;;;;;;;;;;;4973375;28;19906;-43
2022/08/07 12:35:37;;;;;;;;;;;;;;;;;;4973210;28;19910;-43
2022/08/07 12:38:02;;;;;;;;;;;;;;;;;;4973183;28;19910;-43
2022/08/07 12:40:28;;;;;;;;;;;;;;;;;;4973058;28;19918;-43
2022/08/07 12:42:53;;;;;;;;;;;;;;;;;;4973197;28;20292;-42
2022/08/07 12:45:19;;;;;;;;;;;;;;;;;;4973050;28;19918;-43
2022/08/07 12:47:44;;;;;;;;;;;;;;;;;;4973225;28;19914;-43
2022/08/07 12:50:09;;;;;;;;;;;;;;;;;;4973107;28;20269;-42
2022/08/07 12:52:35;;;;;;;;;;;;;;;;;;4972928;28;19924;-43
2022/08/07 12:55:01;;;;;;;;;;;;;;;;;;4955871;28;19956;-43
2022/08/07 12:57:26;;;;;;;;;;;;;;;;;;4972977;28;19914;-43
2022/08/07 12:59:51;;;;;;;;;;;;;;;;;;4972712;28;20024;-43
2022/08/07 13:02:17;;;;;;;;;;;;;;;;;;4972939;28;20315;-43
2022/08/07 13:04:42;;;;;;;;;;;;;;;;;;4973039;28;19946;-43
2022/08/07 13:07:08;;;;;;;;;;;;;;;;;;4972986;28;19913;-42
2022/08/07 13:09:33;;;;;;;;;;;;;;;;;;4973149;28;19914;-43
2022/08/07 13:11:59;;;;;;;;;;;;;;;;;;4972929;28;20379;-43
2022/08/07 13:14:24;;;;;;;;;;;;;;;;;;4972815;28;20008;-43
2022/08/07 13:16:50;;;;;;;;;;;;;;;;;;4973126;28;19913;-42
2022/08/07 13:19:16;;;;;;;;;;;;;;;;;;4972860;28;20253;-42
2022/08/07 13:21:41;;;;;;;;;;;;;;;;;;4972780;28;19921;-43
2022/08/07 13:24:06;;;;;;;;;;;;;;;;;;4972865;28;19914;-43
2022/08/07 13:26:32;;;;;;;;;;;;;;;;;;4976077;28;20004;-42
2022/08/07 13:28:57;;;;;;;;;;;;;;;;;;4976554;28;19914;-44
2022/08/07 13:31:23;;;;;;;;;;;;;;;;;;4976520;28;20017;-42
2022/08/07 13:33:48;;;;;;;;;;;;;;;;;;4976616;28;20360;-44
2022/08/07 13:36:14;;;;;;;;;;;;;;;;;;4976539;28;19913;-42
2022/08/07 13:38:40;;;;;;;;;;;;;;;;;;4976351;28;19910;-43
2022/08/07 13:41:05;;;;;;;;;;;;;;;;;;4976295;28;19937;-44
2022/08/07 13:43:30;;;;;;;;;;;;;;;;;;4976326;28;19914;-43
2022/08/07 13:45:56;;;;;;;;;;;;;;;;;;4976349;28;20477;-42
2022/08/07 13:48:21;;;;;;;;;;;;;;;;;;4976356;28;19917;-43
2022/08/07 13:50:47;;;;;;;;;;;;;;;;;;4976182;28;19993;-43
2022/08/07 13:53:12;;;;;;;;;;;;;;;;;;4976450;28;19910;-43
2022/08/07 13:55:39;;;;;;;;;;;;;;;;;;4975975;28;19906;-42
2022/08/07 13:58:59;;;;;;;;;;;;;;;;;;4976376;28;19914;-43
2022/08/07 14:00:49;;;;;;;;;;;;;;;;;;4975740;28;19977;-42
2022/08/07 14:03:15;;;;;;;;;;;;;;;;;;4976016;28;19914;-42
2022/08/07 14:05:40;;;;;;;;;;;;;;;;;;4975871;28;19920;-43
2022/08/07 14:08:06;;;;;;;;;;;;;;;;;;4975932;28;19914;-42
2022/08/07 14:10:31;;;;;;;;;;;;;;;;;;4975691;28;19917;-42
2022/08/07 14:12:57;;;;;;;;;;;;;;;;;;4975812;28;19906;-43
2022/08/07 14:15:22;;;;;;;;;;;;;;;;;;4975798;28;19910;-43
2022/08/07 14:17:48;;;;;;;;;;;;;;;;;;4975626;28;20333;-42
2022/08/07 14:20:14;;;;;;;;;;;;;;;;;;4975580;28;19947;-43
2022/08/07 14:22:41;;;;;;;;;;;;;;;;;;4975565;28;19906;-43
2022/08/07 14:25:06;;;;;;;;;;;;;;;;;;4975834;28;19910;-43
2022/08/07 14:27:32;;;;;;;;;;;;;;;;;;4975787;28;20423;-43
2022/08/07 14:29:59;;;;;;;;;;;;;;;;;;4975510;28;20388;-42
2022/08/07 14:32:27;;;;;;;;;;;;;;;;;;4975387;28;19913;-42
2022/08/07 14:34:52;;;;;;;;;;;;;;;;;;4975500;28;19913;-42
2022/08/07 14:37:18;;;;;;;;;;;;;;;;;;4975511;28;20280;-43
2022/08/07 14:39:43;;;;;;;;;;;;;;;;;;4975485;28;20388;-43
2022/08/07 14:42:10;;;;;;;;;;;;;;;;;;4975598;28;19937;-43
2022/08/07 14:44:35;;;;;;;;;;;;;;;;;;4975482;28;20328;-43
2022/08/07 14:47:01;;;;;;;;;;;;;;;;;;4975144;28;19910;-43
2022/08/07 14:49:26;;;;;;;;;;;;;;;;;;4957697;28;19953;-43
2022/08/07 14:51:51;;;;;;;;;;;;;;;;;;4975434;28;19917;-42
2022/08/07 14:54:17;;;;;;;;;;;;;;;;;;4975375;28;20386;-43
2022/08/07 14:56:42;;;;;;;;;;;;;;;;;;4957668;28;20332;-43
2022/08/07 14:59:08;;;;;;;;;;;;;;;;;;4974999;28;19917;-43
2022/08/07 15:01:33;;;;;;;;;;;;;;;;;;4974727;28;19918;-42
2022/08/07 15:03:59;;;;;;;;;;;;;;;;;;4974942;28;19953;-43
2022/08/07 15:06:24;;;;;;;;;;;;;;;;;;4975020;28;20288;-44
2022/08/07 15:08:51;;;;;;;;;;;;;;;;;;4974752;28;19910;-43
2022/08/07 15:11:16;;;;;;;;;;;;;;;;;;4974863;28;19906;-43
2022/08/07 15:13:42;;;;;;;;;;;;;;;;;;4974598;28;19910;-43
2022/08/07 15:16:10;;;;;;;;;;;;;;;;;;4974959;28;19913;-43
2022/08/07 15:18:36;;;;;;;;;;;;;;;;;;4974764;28;19909;-43
2022/08/07 15:21:01;;;;;;;;;;;;;;;;;;4974502;28;19920;-43
2022/08/07 15:23:27;;;;;;;;;;;;;;;;;;4957155;28;20281;-43
2022/08/07 15:25:52;;;;;;;;;;;;;;;;;;4974583;28;19913;-43
2022/08/07 15:28:17;;;;;;;;;;;;;;;;;;4974435;28;19914;-43
2022/08/07 15:30:44;;;;;;;;;;;;;;;;;;4974384;28;19906;-43
2022/08/07 15:33:10;;;;;;;;;;;;;;;;;;4974412;28;19917;-44
2022/08/07 15:35:36;;;;;;;;;;;;;;;;;;4974461;28;19906;-43
2022/08/07 15:38:01;;;;;;;;;;;;;;;;;;4974519;28;19910;-43
2022/08/07 15:40:27;;;;;;;;;;;;;;;;;;4974055;28;19925;-43
2022/08/07 15:42:52;;;;;;;;;;;;;;;;;;4974197;28;19965;-42
2022/08/07 15:45:18;;;;;;;;;;;;;;;;;;4974433;28;19913;-43
2022/08/07 15:47:43;;;;;;;;;;;;;;;;;;4973892;28;19928;-43
2022/08/07 15:50:10;;;;;;;;;;;;;;;;;;4974248;28;20356;-43
2022/08/07 15:52:35;;;;;;;;;;;;;;;;;;4974138;28;20001;-43
2022/08/07 15:55:01;;;;;;;;;;;;;;;;;;4974203;28;20337;-43
2022/08/07 15:57:26;;;;;;;;;;;;;;;;;;4974074;28;20004;-43
2022/08/07 15:59:51;;;;;;;;;;;;;;;;;;4973782;28;19960;-43
2022/08/07 16:02:17;;;;;;;;;;;;;;;;;;4973837;28;19917;-43
2022/08/07 16:04:42;;;;;;;;;;;;;;;;;;4973958;28;20004;-42
2022/08/07 16:07:08;;;;;;;;;;;;;;;;;;4973795;28;20250;-43
2022/08/07 16:09:33;;;;;;;;;;;;;;;;;;4973859;28;19913;-43
2022/08/07 16:11:58;;;;;;;;;;;;;;;;;;4973901;28;20336;-43
2022/08/07 16:14:24;;;;;;;;;;;;;;;;;;4973633;28;20321;-43
2022/08/07 16:16:50;;;;;;;;;;;;;;;;;;4973881;28;20057;-43
2022/08/07 16:19:15;;;;;;;;;;;;;;;;;;4973413;28;19945;-43
2022/08/07 16:21:41;;;;;;;;;;;;;;;;;;4956080;28;20012;-43
2022/08/07 16:24:06;;;;;;;;;;;;;;;;;;4973421;28;19912;-43
2022/08/07 16:26:31;;;;;;;;;;;;;;;;;;4973352;28;19929;-43
2022/08/07 16:28:57;;;;;;;;;;;;;;;;;;4973230;28;19910;-42
2022/08/07 16:31:22;;;;;;;;;;;;;;;;;;4956024;28;20004;-43
2022/08/07 16:33:48;;;;;;;;;;;;;;;;;;4973265;28;19914;-43
2022/08/07 16:36:13;;;;;;;;;;;;;;;;;;4973283;28;19925;-43
2022/08/07 16:38:39;;;;;;;;;;;;;;;;;;4973141;28;19958;-43
2022/08/07 16:41:04;;;;;;;;;;;;;;;;;;4973160;28;20039;-42